createdAt,value
2022-12-22T00:02:01.599Z,46.70
2022-12-22T00:04:48.080Z,49.90
2022-12-22T00:07:33.695Z,49.57
2022-12-22T00:10:19.489Z,49.43
2022-12-22T00:13:06.544Z,46.27
2022-12-22T00:15:54.466Z,45.97
2022-12-22T00:18:40.310Z,45.17
2022-12-22T00:21:29.335Z,49.07
2022-12-22T00:24:15.694Z,42.50
2022-12-22T00:27:02.056Z,43.00
2022-12-22T00:29:58.888Z,54.63
2022-12-22T00:32:50.953Z,54.10
2022-12-22T00:35:42.080Z,45.50
2022-12-22T00:38:34.342Z,48.10
2022-12-22T00:41:23.063Z,45.10
2022-12-22T00:44:09.465Z,46.63
2022-12-22T00:46:59.455Z,42.17
2022-12-22T00:49:47.521Z,50.70
2022-12-22T00:52:34.504Z,47.30
2022-12-22T00:55:20.843Z,51.30
2022-12-22T00:58:06.928Z,49.10
2022-12-22T01:00:52.477Z,53.17
2022-12-22T01:03:39.653Z,55.53
2022-12-22T01:06:29.204Z,53.90
2022-12-22T01:09:15.010Z,58.53
2022-12-22T01:12:00.973Z,55.80
2022-12-22T01:14:46.685Z,58.40
2022-12-22T01:17:32.948Z,56.23
2022-12-22T01:20:20.093Z,59.00
2022-12-22T01:23:06.108Z,59.17
2022-12-22T01:25:51.832Z,67.60
2022-12-22T01:28:37.415Z,64.77
2022-12-22T01:31:37.044Z,67.63
2022-12-22T01:34:22.982Z,66.53
2022-12-22T01:37:10.111Z,62.93
2022-12-22T01:39:55.994Z,63.83
2022-12-22T01:42:42.587Z,68.33
2022-12-22T01:45:40.447Z,61.57
2022-12-22T01:48:31.020Z,68.43
2022-12-22T01:51:18.521Z,62.63
2022-12-22T01:54:06.509Z,70.23
2022-12-22T01:56:52.679Z,69.43
2022-12-22T01:59:38.663Z,75.60
2022-12-22T02:02:25.859Z,67.67
2022-12-22T02:05:14.715Z,72.00
2022-12-22T02:08:19.620Z,74.20
2022-12-22T02:11:25.644Z,74.90
2022-12-22T02:14:30.148Z,74.37
2022-12-22T02:17:29.516Z,82.00
2022-12-22T02:20:49.341Z,79.27
2022-12-22T02:24:22.539Z,80.70
2022-12-22T02:27:13.519Z,82.67
2022-12-22T02:30:05.660Z,81.63
2022-12-22T02:32:55.014Z,84.77
2022-12-22T02:35:40.870Z,101.77
2022-12-22T02:38:34.013Z,91.03
2022-12-22T02:41:41.354Z,98.33
2022-12-22T02:44:40.896Z,97.47
2022-12-22T02:47:37.841Z,100.07
2022-12-22T02:50:34.920Z,96.00
2022-12-22T02:53:22.246Z,94.33
2022-12-22T02:56:08.062Z,85.97
2022-12-22T02:58:54.210Z,104.13
2022-12-22T03:01:41.374Z,83.53
2022-12-22T03:04:27.257Z,83.87
2022-12-22T03:07:12.826Z,84.93
2022-12-22T03:09:58.527Z,76.60
2022-12-22T03:12:44.623Z,83.63
2022-12-22T03:15:30.491Z,80.37
2022-12-22T03:18:22.431Z,73.57
2022-12-22T03:21:08.203Z,84.27
2022-12-22T03:23:54.208Z,73.23
2022-12-22T03:26:22.585Z,83.90
2022-12-22T03:28:51.097Z,84.77
2022-12-22T03:31:19.819Z,76.57
2022-12-22T03:33:49.635Z,86.70
2022-12-22T03:36:18.156Z,101.23
2022-12-22T03:38:46.539Z,85.87
2022-12-22T03:41:34.981Z,92.90
2022-12-22T03:44:21.368Z,89.93
2022-12-22T03:46:49.775Z,76.50
2022-12-22T03:49:20.109Z,73.20
2022-12-22T03:51:50.875Z,85.77
2022-12-22T03:54:21.872Z,89.03
2022-12-22T03:56:50.990Z,86.37
2022-12-22T03:59:20.405Z,71.60
2022-12-22T04:01:51.629Z,67.93
2022-12-22T04:04:24.153Z,80.87
2022-12-22T04:06:52.945Z,71.53
2022-12-22T04:09:22.299Z,75.90
2022-12-22T04:12:08.372Z,73.50
2022-12-22T04:14:36.885Z,71.33
2022-12-22T04:17:06.167Z,63.30
2022-12-22T04:19:35.995Z,72.27
2022-12-22T04:22:04.305Z,74.90
2022-12-22T04:24:32.717Z,75.90
2022-12-22T04:27:01.179Z,66.50
2022-12-22T04:29:29.529Z,72.30
2022-12-22T04:31:58.021Z,63.37
2022-12-22T04:34:27.466Z,65.47
2022-12-22T04:37:04.455Z,71.20
2022-12-22T04:39:38.383Z,69.73
2022-12-22T04:42:06.793Z,66.53
2022-12-22T04:44:35.121Z,69.27
2022-12-22T04:47:03.467Z,64.63
2022-12-22T04:49:32.176Z,73.10
2022-12-22T04:52:01.928Z,74.27
2022-12-22T04:54:30.326Z,72.60
2022-12-22T04:56:58.651Z,76.40
2022-12-22T04:59:27.297Z,75.83
2022-12-22T05:01:55.818Z,67.67
2022-12-22T05:04:24.618Z,83.17
2022-12-22T05:06:52.968Z,91.53
2022-12-22T05:09:22.759Z,71.43
2022-12-22T05:11:51.160Z,84.20
2022-12-22T05:14:19.632Z,87.37
2022-12-22T05:16:48.048Z,75.40
2022-12-22T05:19:17.199Z,79.47
2022-12-22T05:21:45.598Z,82.50
2022-12-22T05:24:14.760Z,75.93
2022-12-22T05:26:44.483Z,76.90
2022-12-22T05:29:12.890Z,79.60
2022-12-22T05:31:46.981Z,80.87
2022-12-22T05:34:15.888Z,83.70
2022-12-22T05:36:44.261Z,85.97
2022-12-22T05:39:12.669Z,80.37
2022-12-22T05:41:40.994Z,85.90
2022-12-22T05:44:10.787Z,85.90
2022-12-22T05:46:39.124Z,82.93
2022-12-22T05:49:07.492Z,85.00
2022-12-22T05:51:35.909Z,86.60
2022-12-22T05:54:04.257Z,95.03
2022-12-22T05:56:32.629Z,92.17
2022-12-22T05:59:01.002Z,106.00
2022-12-22T06:01:31.207Z,105.13
2022-12-22T06:04:00.701Z,122.20
2022-12-22T06:06:29.528Z,109.23
2022-12-22T06:08:57.877Z,119.33
2022-12-22T06:11:26.219Z,116.73
2022-12-22T06:13:54.522Z,125.10
2022-12-22T06:16:22.883Z,116.57
2022-12-22T06:18:52.697Z,112.57
2022-12-22T06:21:20.964Z,117.10
2022-12-22T06:23:49.276Z,112.83
2022-12-22T06:26:17.759Z,121.20
2022-12-22T06:28:46.288Z,120.27
2022-12-22T06:31:14.613Z,120.20
2022-12-22T06:33:43.110Z,120.87
2022-12-22T06:36:13.236Z,119.30
2022-12-22T06:38:41.588Z,126.53
2022-12-22T06:41:09.949Z,132.43
2022-12-22T06:43:37.418Z,129.73
2022-12-22T06:46:06.247Z,133.33
2022-12-22T06:48:34.670Z,160.50
2022-12-22T06:51:03.067Z,154.27
2022-12-22T06:53:33.089Z,160.27
2022-12-22T06:56:01.448Z,133.47
2022-12-22T06:58:29.900Z,162.17
2022-12-22T07:00:58.393Z,180.10
2022-12-22T07:03:26.959Z,160.60
2022-12-22T07:05:55.447Z,156.07
2022-12-22T07:08:24.220Z,148.77
2022-12-22T07:10:59.606Z,194.40
2022-12-22T07:13:31.860Z,163.60
2022-12-22T07:16:02.107Z,185.50
2022-12-22T07:18:32.928Z,161.30
2022-12-22T07:21:02.903Z,174.17
2022-12-22T07:23:32.006Z,163.57
2022-12-22T07:26:02.331Z,223.33
2022-12-22T07:28:30.752Z,264.20
2022-12-22T07:30:59.223Z,412.03
2022-12-22T07:33:27.657Z,275.20
2022-12-22T07:36:08.773Z,215.10
2022-12-22T07:38:40.092Z,266.20
2022-12-22T07:41:25.581Z,146.77
2022-12-22T07:43:54.871Z,224.93
2022-12-22T07:46:24.359Z,237.50
2022-12-22T07:49:09.857Z,160.03
2022-12-22T07:51:40.892Z,257.47
2022-12-22T07:54:11.152Z,178.77
2022-12-22T07:56:41.406Z,160.07
2022-12-22T07:59:10.677Z,146.63
2022-12-22T08:01:40.362Z,143.13
2022-12-22T08:04:09.088Z,137.90
2022-12-22T08:06:37.841Z,149.97
2022-12-22T08:09:08.704Z,154.57
2022-12-22T08:11:37.343Z,139.13
2022-12-22T08:14:07.291Z,139.83
2022-12-22T08:16:35.807Z,116.80
2022-12-22T08:19:04.203Z,102.13
2022-12-22T08:21:32.586Z,110.37
2022-12-22T08:24:00.895Z,113.80
2022-12-22T08:26:34.642Z,115.90
2022-12-22T08:29:09.484Z,103.27
2022-12-22T08:31:38.231Z,110.53
2022-12-22T08:34:10.144Z,110.57
2022-12-22T08:36:44.759Z,99.23
2022-12-22T08:39:14.312Z,100.17
2022-12-22T08:41:51.899Z,96.40
2022-12-22T08:44:24.731Z,102.40
2022-12-22T08:46:54.647Z,113.43
2022-12-22T08:49:23.643Z,100.07
2022-12-22T08:51:52.854Z,102.60
2022-12-22T08:54:21.767Z,104.43
2022-12-22T08:56:50.682Z,105.87
2022-12-22T08:59:20.881Z,112.27
2022-12-22T09:01:51.177Z,100.07
2022-12-22T09:04:22.439Z,103.43
2022-12-22T09:06:53.608Z,99.10
2022-12-22T09:09:23.281Z,100.43
2022-12-22T09:11:51.977Z,103.57
2022-12-22T09:14:21.657Z,85.30
2022-12-22T09:16:50.543Z,81.13
2022-12-22T09:19:18.983Z,82.30
2022-12-22T09:21:47.525Z,80.07
2022-12-22T09:24:16.152Z,67.20
2022-12-22T09:26:44.673Z,78.47
2022-12-22T09:29:15.347Z,86.57
2022-12-22T09:31:45.440Z,77.53
2022-12-22T09:34:18.091Z,77.27
2022-12-22T09:36:47.324Z,71.30
2022-12-22T09:39:16.267Z,84.33
2022-12-22T09:41:48.587Z,78.77
2022-12-22T09:44:28.267Z,83.87
2022-12-22T09:47:02.155Z,87.70
2022-12-22T09:49:30.791Z,90.33
2022-12-22T09:52:02.031Z,76.13
2022-12-22T09:54:31.685Z,75.77
2022-12-22T09:57:00.952Z,76.70
2022-12-22T09:59:31.317Z,73.57
2022-12-22T10:02:20.146Z,69.60
2022-12-22T10:05:05.211Z,62.40
2022-12-22T10:07:36.801Z,57.03
2022-12-22T10:10:09.807Z,45.53
2022-12-22T10:12:38.249Z,41.83
2022-12-22T10:15:15.450Z,49.30
2022-12-22T10:17:51.287Z,40.10
2022-12-22T10:20:26.897Z,46.17
2022-12-22T10:22:59.168Z,32.37
2022-12-22T10:26:00.339Z,37.20
2022-12-22T10:28:27.260Z,30.77
2022-12-22T10:31:13.614Z,35.47
2022-12-22T10:33:47.503Z,31.93
2022-12-22T10:36:20.327Z,31.57
2022-12-22T10:39:00.848Z,33.43
2022-12-22T10:41:32.456Z,27.60
2022-12-22T10:44:03.905Z,27.97
2022-12-22T10:46:39.737Z,35.10
2022-12-22T10:49:20.476Z,28.07
2022-12-22T10:51:53.659Z,33.70
2022-12-22T10:54:34.245Z,37.07
2022-12-22T10:57:29.040Z,27.27
2022-12-22T10:59:59.523Z,30.07
2022-12-22T11:02:34.367Z,28.50
2022-12-22T11:05:08.150Z,27.67
2022-12-22T11:07:39.162Z,30.07
2022-12-22T11:10:20.537Z,24.83
2022-12-22T11:13:08.148Z,26.13
2022-12-22T11:15:42.930Z,29.30
2022-12-22T11:18:37.804Z,22.87
2022-12-22T11:21:23.660Z,24.10
2022-12-22T11:24:03.056Z,25.77
2022-12-22T11:26:45.088Z,22.57
2022-12-22T11:29:52.481Z,26.53
2022-12-22T11:32:41.971Z,23.13
2022-12-22T11:35:19.040Z,24.00
2022-12-22T11:37:54.584Z,21.13
2022-12-22T11:40:33.272Z,23.13
2022-12-22T11:43:23.955Z,22.70
2022-12-22T11:46:23.291Z,20.73
2022-12-22T11:49:22.181Z,21.77
2022-12-22T11:52:10.944Z,23.70
2022-12-22T11:55:13.091Z,24.33
2022-12-22T11:57:56.524Z,27.23
2022-12-22T12:00:32.702Z,24.47
2022-12-22T12:04:09.153Z,19.23
2022-12-22T12:07:01.119Z,21.43
2022-12-22T12:09:44.506Z,19.27
2022-12-22T12:12:24.564Z,17.23
2022-12-22T12:15:06.274Z,20.63
2022-12-22T12:17:52.655Z,19.37
2022-12-22T12:20:45.675Z,18.77
2022-12-22T12:23:45.777Z,18.67
2022-12-22T12:26:21.523Z,20.00
2022-12-22T12:29:06.469Z,20.60
2022-12-22T12:31:41.331Z,19.00
2022-12-22T12:34:16.017Z,19.37
2022-12-22T12:36:53.389Z,16.27
2022-12-22T12:39:32.373Z,17.93
2022-12-22T12:42:16.645Z,19.53
2022-12-22T12:44:47.667Z,18.07
2022-12-22T12:47:26.588Z,19.93
2022-12-22T12:50:18.404Z,22.73
2022-12-22T12:53:11.493Z,13.07
2022-12-22T12:56:04.819Z,14.23
2022-12-22T12:58:59.116Z,14.10
2022-12-22T13:02:02.328Z,16.70
2022-12-22T13:05:29.013Z,15.97
2022-12-22T13:08:19.798Z,16.73
2022-12-22T13:11:44.837Z,14.20
2022-12-22T13:14:10.183Z,16.03
2022-12-22T13:16:40.663Z,12.37
2022-12-22T13:19:32.026Z,13.03
2022-12-22T13:22:04.213Z,11.37
2022-12-22T13:24:48.840Z,13.63
2022-12-22T13:27:18.542Z,14.33
2022-12-22T13:29:48.967Z,14.27
2022-12-22T13:32:28.787Z,17.37
2022-12-22T13:35:37.468Z,17.30
2022-12-22T13:38:07.150Z,15.63
2022-12-22T13:40:44.027Z,15.00
2022-12-22T13:43:16.117Z,11.17
2022-12-22T13:45:47.900Z,13.17
2022-12-22T13:48:20.177Z,12.00
2022-12-22T13:50:53.201Z,14.20
2022-12-22T13:56:24.040Z,15.37
2022-12-22T13:58:57.112Z,11.50
2022-12-22T14:01:25.713Z,15.30
2022-12-22T14:04:00.902Z,13.73
2022-12-22T14:06:34.635Z,12.50
2022-12-22T14:09:19.513Z,14.23
2022-12-22T14:11:53.172Z,14.00
2022-12-22T14:14:26.855Z,11.27
2022-12-22T14:16:58.753Z,12.03
2022-12-22T14:19:31.177Z,13.10
2022-12-22T14:22:12.366Z,11.80
2022-12-22T14:24:49.310Z,9.93
2022-12-22T14:27:25.382Z,9.83
2022-12-22T14:29:54.030Z,9.33
2022-12-22T14:32:39.554Z,13.83
2022-12-22T14:35:27.883Z,10.50
2022-12-22T14:38:19.334Z,11.33
2022-12-22T14:40:52.659Z,10.10
2022-12-22T14:43:29.787Z,7.83
2022-12-22T14:46:08.436Z,10.43
2022-12-22T14:48:40.779Z,11.77
2022-12-22T14:51:09.291Z,10.37
2022-12-22T14:53:48.305Z,7.73
2022-12-22T14:56:19.100Z,10.83
2022-12-22T14:58:49.353Z,9.20
2022-12-22T15:01:23.153Z,11.20
2022-12-22T15:04:07.783Z,8.53
2022-12-22T15:06:40.670Z,8.90
2022-12-22T15:10:13.192Z,10.23
2022-12-22T15:12:20.245Z,9.13
2022-12-22T15:14:49.919Z,7.70
2022-12-22T15:17:26.594Z,10.90
2022-12-22T15:19:58.874Z,16.73
2022-12-22T15:22:27.150Z,10.23
2022-12-22T15:24:56.908Z,10.37
2022-12-22T15:27:25.256Z,9.93
2022-12-22T15:29:53.568Z,10.17
2022-12-22T15:32:22.591Z,11.20
2022-12-22T15:34:50.940Z,10.13
2022-12-22T15:37:19.243Z,11.87
2022-12-22T15:39:47.916Z,8.50
2022-12-22T15:42:17.635Z,10.80
2022-12-22T15:44:45.998Z,9.50
2022-12-22T15:47:14.621Z,12.93
2022-12-22T15:49:43.021Z,8.53
2022-12-22T15:52:14.862Z,11.80
2022-12-22T15:54:43.465Z,11.10
2022-12-22T15:57:15.194Z,12.63
2022-12-22T15:59:44.921Z,11.17
2022-12-22T16:02:14.637Z,11.17
2022-12-22T16:04:43.163Z,12.67
2022-12-22T16:07:13.059Z,9.27
2022-12-22T16:09:44.479Z,11.77
2022-12-22T16:12:18.473Z,11.13
2022-12-22T16:14:52.055Z,15.13
2022-12-22T16:17:22.691Z,12.17
2022-12-22T16:19:51.215Z,13.43
2022-12-22T16:22:32.649Z,12.33
2022-12-22T16:25:03.703Z,17.73
2022-12-22T16:27:32.581Z,15.07
2022-12-22T16:30:02.371Z,15.10
2022-12-22T16:32:33.224Z,14.93
2022-12-22T16:35:15.795Z,14.43
2022-12-22T16:37:44.792Z,13.40
2022-12-22T16:40:14.297Z,18.97
2022-12-22T16:45:45.931Z,15.73
2022-12-22T16:48:20.622Z,18.50
2022-12-22T16:50:49.978Z,22.07
2022-12-22T16:53:18.399Z,19.40
2022-12-22T16:55:46.725Z,17.80
2022-12-22T16:58:15.278Z,20.07
2022-12-22T17:00:46.634Z,18.03
2022-12-22T17:03:17.892Z,21.13
2022-12-22T17:05:50.701Z,21.07
2022-12-22T17:08:25.868Z,24.93
2022-12-22T17:10:57.100Z,19.43
2022-12-22T17:13:25.883Z,20.60
2022-12-22T17:15:55.586Z,24.40
2022-12-22T17:18:29.396Z,25.37
2022-12-22T17:21:00.588Z,25.83
2022-12-22T17:23:34.504Z,24.07
2022-12-22T17:26:07.883Z,26.20
2022-12-22T17:28:39.730Z,27.57
2022-12-22T17:31:10.730Z,28.10
2022-12-22T17:33:39.057Z,28.43
2022-12-22T17:36:16.381Z,32.83
2022-12-22T17:38:46.798Z,35.17
2022-12-22T17:41:18.293Z,33.10
2022-12-22T17:43:46.668Z,34.30
2022-12-22T17:46:19.862Z,36.63
2022-12-22T17:48:48.901Z,36.63
2022-12-22T17:51:23.802Z,38.53
2022-12-22T17:53:52.815Z,39.10
2022-12-22T17:56:24.977Z,37.73
2022-12-22T17:58:54.095Z,37.20
2022-12-22T18:01:27.579Z,39.67
2022-12-22T18:03:57.117Z,41.47
2022-12-22T18:06:29.359Z,42.77
2022-12-22T18:08:58.560Z,37.87
2022-12-22T18:11:27.762Z,37.30
2022-12-22T18:13:57.405Z,35.73
2022-12-22T18:16:27.308Z,42.47
2022-12-22T18:18:55.775Z,42.07
2022-12-22T18:21:25.955Z,38.20
2022-12-22T18:23:54.418Z,41.13
2022-12-22T18:26:26.171Z,39.90
2022-12-22T18:28:55.930Z,41.10
2022-12-22T18:31:26.379Z,38.70
2022-12-22T18:33:55.006Z,40.33
2022-12-22T18:36:29.797Z,39.87
2022-12-22T18:38:59.199Z,42.77
2022-12-22T18:41:32.027Z,45.40
2022-12-22T18:44:00.395Z,46.23
2022-12-22T18:46:30.160Z,48.07
2022-12-22T18:49:05.017Z,45.10
2022-12-22T18:51:33.923Z,49.90
2022-12-22T18:54:02.280Z,44.87
2022-12-22T18:56:30.504Z,47.73
2022-12-22T18:58:58.814Z,46.97
2022-12-22T19:01:29.821Z,46.83
2022-12-22T19:03:59.474Z,47.97
2022-12-22T19:06:27.837Z,48.97
2022-12-22T19:08:56.665Z,52.90
2022-12-22T19:11:34.527Z,63.40
2022-12-22T19:14:03.835Z,60.33
2022-12-22T19:16:33.492Z,63.70
2022-12-22T19:19:01.851Z,56.67
2022-12-22T19:21:30.150Z,57.70
2022-12-22T19:23:58.507Z,64.67
2022-12-22T19:26:28.586Z,64.57
2022-12-22T19:29:01.968Z,64.27
2022-12-22T19:31:34.401Z,63.73
2022-12-22T19:34:06.471Z,63.60
2022-12-22T19:36:35.021Z,61.33
2022-12-22T19:39:05.441Z,60.33
2022-12-22T19:41:41.793Z,55.83
2022-12-22T19:44:22.169Z,55.37
2022-12-22T19:46:52.674Z,62.73
2022-12-22T19:49:23.875Z,265.17
2022-12-22T19:51:52.248Z,246.30
2022-12-22T19:54:20.855Z,106.43
2022-12-22T19:56:52.844Z,96.67
2022-12-22T19:59:34.003Z,85.23
2022-12-22T20:02:26.755Z,84.90
2022-12-22T20:04:57.169Z,61.97
2022-12-22T20:07:28.343Z,62.00
2022-12-22T20:09:56.875Z,60.60
2022-12-22T20:12:30.864Z,67.23
2022-12-22T20:14:59.890Z,63.87
2022-12-22T20:17:29.660Z,63.73
2022-12-22T20:19:58.038Z,65.17
2022-12-22T20:22:26.460Z,65.00
2022-12-22T20:24:55.459Z,65.07
2022-12-22T20:27:30.949Z,63.37
2022-12-22T20:30:05.810Z,62.37
2022-12-22T20:32:35.578Z,71.23
2022-12-22T20:35:04.119Z,67.87
2022-12-22T20:37:32.522Z,64.47
2022-12-22T20:40:01.322Z,69.07
2022-12-22T20:42:29.825Z,66.17
2022-12-22T20:45:02.108Z,75.03
2022-12-22T20:47:37.187Z,65.13
2022-12-22T20:50:19.615Z,68.27
2022-12-22T20:52:48.472Z,65.43
2022-12-22T20:55:18.515Z,85.10
2022-12-22T20:57:48.363Z,75.63
2022-12-22T21:00:23.425Z,71.90
2022-12-22T21:02:54.750Z,68.73
2022-12-22T21:05:23.620Z,63.40
2022-12-22T21:07:52.065Z,73.27
2022-12-22T21:10:23.911Z,69.23
2022-12-22T21:12:52.378Z,69.73
2022-12-22T21:15:23.733Z,68.40
2022-12-22T21:17:58.116Z,68.77
2022-12-22T21:20:30.033Z,74.83
2022-12-22T21:22:58.522Z,72.40
2022-12-22T21:25:27.112Z,74.73
2022-12-22T21:27:55.560Z,81.87
2022-12-22T21:30:26.518Z,81.90
2022-12-22T21:32:57.043Z,79.57
2022-12-22T21:35:28.373Z,72.67
2022-12-22T21:37:59.292Z,71.83
2022-12-22T21:40:31.080Z,83.23
2022-12-22T21:42:59.882Z,74.20
2022-12-22T21:45:36.937Z,83.20
2022-12-22T21:48:13.537Z,76.93
2022-12-22T21:50:42.284Z,82.07
2022-12-22T21:53:18.044Z,80.10
2022-12-22T21:55:50.376Z,76.80
2022-12-22T21:58:18.708Z,78.53
2022-12-22T22:00:49.775Z,85.17
2022-12-22T22:03:19.541Z,77.40
2022-12-22T22:05:48.856Z,84.20
2022-12-22T22:08:17.147Z,81.27
2022-12-22T22:10:45.632Z,84.80
2022-12-22T22:13:16.893Z,85.07
2022-12-22T22:15:45.404Z,87.40
2022-12-22T22:18:18.915Z,93.00
2022-12-22T22:20:51.245Z,86.07
2022-12-22T22:23:20.656Z,93.87
2022-12-22T22:25:48.991Z,89.83
2022-12-22T22:28:18.154Z,92.07
2022-12-22T22:30:46.857Z,98.53
2022-12-22T22:33:15.835Z,95.83
2022-12-22T22:35:45.647Z,102.40
2022-12-22T22:38:16.169Z,108.93
2022-12-22T22:40:45.592Z,91.37
2022-12-22T22:43:15.024Z,104.77
2022-12-22T22:45:44.089Z,95.70
2022-12-22T22:48:20.804Z,102.83
2022-12-22T22:50:51.312Z,94.57
2022-12-22T22:53:19.724Z,115.07
2022-12-22T22:55:48.190Z,106.23
2022-12-22T22:58:16.522Z,102.00
2022-12-22T23:00:44.865Z,113.80
2022-12-22T23:03:13.362Z,114.23
2022-12-22T23:05:41.741Z,113.87
2022-12-22T23:08:11.474Z,101.77
2022-12-22T23:10:41.948Z,94.73
2022-12-22T23:13:10.976Z,101.33
2022-12-22T23:15:39.300Z,102.70
2022-12-22T23:18:07.682Z,127.43
2022-12-22T23:20:36.083Z,112.83
2022-12-22T23:23:04.445Z,115.13
2022-12-22T23:25:34.517Z,113.57
2022-12-22T23:28:02.881Z,121.23
2022-12-22T23:30:31.123Z,124.50
2022-12-22T23:32:59.503Z,119.47
2022-12-22T23:35:27.907Z,123.37
2022-12-22T23:37:56.260Z,105.17
2022-12-22T23:40:51.152Z,122.40
2022-12-22T23:43:15.090Z,130.20
2022-12-22T23:45:43.675Z,118.93
2022-12-22T23:48:12.143Z,121.03
2022-12-22T23:50:40.499Z,138.50
2022-12-22T23:53:08.890Z,130.63
2022-12-22T23:55:37.206Z,137.73
2022-12-22T23:58:05.547Z,119.50
